createdAt,value
2023-03-23T16:02:31.096Z,58.55
2023-03-23T16:07:36.461Z,58.83
2023-03-23T16:12:41.812Z,58.64
2023-03-23T16:17:47.775Z,58.79
2023-03-23T16:22:59.801Z,59.09
2023-03-23T16:28:06.120Z,59.53
2023-03-23T16:33:12.079Z,59.88
2023-03-23T16:38:18.442Z,60.81
2023-03-23T16:43:24.148Z,61.87
2023-03-23T16:48:29.536Z,62.61
2023-03-23T16:53:36.157Z,63.63
2023-03-23T16:58:42.552Z,64.51
2023-03-23T17:03:50.980Z,65.45
2023-03-23T17:08:56.822Z,65.86
2023-03-23T17:14:02.271Z,66.51
2023-03-23T17:19:08.272Z,66.84
2023-03-23T17:24:13.741Z,67.30
2023-03-23T17:29:19.548Z,67.60
2023-03-23T17:34:25.089Z,67.97
2023-03-23T17:39:31.958Z,68.00
2023-03-23T17:44:48.098Z,68.64
2023-03-23T17:49:53.515Z,69.12
2023-03-23T17:54:58.867Z,69.34
2023-03-23T18:00:07.276Z,69.80
2023-03-23T18:05:13.246Z,70.19
2023-03-23T18:10:18.844Z,70.56
2023-03-23T18:15:28.408Z,70.94
2023-03-23T18:20:35.383Z,71.05
2023-03-23T18:25:40.841Z,71.31
2023-03-23T18:30:49.442Z,71.64
2023-03-23T18:36:00.072Z,71.97
2023-03-23T18:41:09.575Z,72.07
2023-03-23T18:46:15.568Z,72.38
2023-03-23T18:51:21.070Z,72.83
2023-03-23T18:56:27.041Z,73.25
2023-03-23T19:01:32.822Z,74.04
2023-03-23T19:06:38.196Z,74.59
2023-03-23T19:11:43.739Z,75.52
2023-03-23T19:16:49.364Z,75.86
2023-03-23T19:21:55.389Z,76.34
2023-03-23T19:27:01.727Z,76.77
2023-03-23T19:32:07.752Z,77.19
2023-03-23T19:37:13.085Z,77.44
2023-03-23T19:42:20.366Z,77.63
2023-03-23T19:47:25.805Z,78.01
2023-03-23T19:52:31.532Z,78.24
2023-03-23T19:57:38.199Z,78.21
2023-03-23T20:02:43.928Z,78.53
2023-03-23T20:07:51.872Z,78.62
2023-03-23T20:12:57.630Z,78.75
2023-03-23T20:18:03.275Z,78.81
2023-03-23T20:23:09.185Z,78.91
2023-03-23T20:28:14.502Z,79.10
2023-03-23T20:33:20.830Z,79.40
2023-03-23T20:38:27.521Z,79.59
2023-03-23T20:43:33.573Z,79.79
2023-03-23T20:48:40.291Z,79.96
2023-03-23T20:53:46.615Z,80.00
2023-03-23T20:58:51.973Z,80.17
2023-03-23T21:03:57.924Z,80.57
2023-03-23T21:09:04.066Z,80.97
2023-03-23T21:14:10.617Z,81.24
2023-03-23T21:19:15.975Z,81.44
2023-03-23T21:24:22.264Z,81.77
2023-03-23T21:29:28.320Z,82.03
2023-03-23T21:34:34.495Z,82.38
2023-03-23T21:39:40.160Z,82.95
2023-03-23T21:44:45.497Z,82.85
2023-03-23T21:49:51.704Z,82.84
2023-03-23T21:54:59.434Z,82.84
2023-03-23T22:00:08.141Z,82.80
2023-03-23T22:05:13.540Z,82.88
2023-03-23T22:10:19.582Z,82.74
2023-03-23T22:15:27.879Z,83.20
2023-03-23T22:20:33.680Z,83.26
2023-03-23T22:25:39.122Z,83.43
2023-03-23T22:30:44.698Z,83.43
2023-03-23T22:35:51.228Z,83.44
2023-03-23T22:40:59.062Z,83.60
2023-03-23T22:46:05.126Z,83.49
2023-03-23T22:51:11.750Z,83.48
2023-03-23T22:56:18.264Z,83.41
2023-03-23T23:01:24.241Z,83.18
2023-03-23T23:06:29.724Z,82.91
2023-03-23T23:11:35.025Z,83.26
2023-03-23T23:16:41.274Z,83.38
2023-03-23T23:21:46.681Z,84.19
2023-03-23T23:26:52.325Z,84.35
2023-03-23T23:32:01.292Z,84.83
2023-03-23T23:37:09.001Z,84.93
2023-03-23T23:42:14.452Z,85.20
2023-03-23T23:47:20.633Z,84.97
2023-03-23T23:52:26.210Z,84.89
2023-03-23T23:57:31.624Z,84.60
